createdAt,value
2023-04-06T01:47:29.110Z,99.90
2023-04-06T01:49:57.423Z,99.90
2023-04-06T01:52:25.758Z,99.90
2023-04-06T01:54:54.180Z,99.90
2023-04-06T01:57:23.769Z,99.90
2023-04-06T01:59:52.022Z,99.90
2023-04-06T02:02:20.598Z,99.90
2023-04-06T02:04:48.813Z,99.90
2023-04-06T02:07:17.095Z,99.90
2023-04-06T02:09:45.530Z,99.90
2023-04-06T02:12:13.774Z,99.90
2023-04-06T02:14:43.487Z,99.90
2023-04-06T02:17:11.734Z,99.90
2023-04-06T02:19:39.982Z,99.90
2023-04-06T02:22:08.261Z,99.90
2023-04-06T02:24:36.624Z,99.90
2023-04-06T02:27:04.934Z,99.90
2023-04-06T02:29:33.144Z,99.90
2023-04-06T02:32:02.803Z,99.90
2023-04-06T02:34:31.395Z,99.90
2023-04-06T02:36:59.648Z,99.90
2023-04-06T02:39:28.091Z,99.90
2023-04-06T02:41:56.353Z,99.90
2023-04-06T02:44:24.560Z,99.90
2023-04-06T02:46:52.913Z,99.90
2023-04-06T02:49:22.547Z,99.90
2023-04-06T02:51:50.821Z,99.90
2023-04-06T02:54:19.013Z,99.90
2023-04-06T02:56:47.332Z,99.90
2023-04-06T02:59:15.645Z,99.90
2023-04-06T03:01:43.920Z,99.90
2023-04-06T03:04:12.299Z,99.90
2023-04-06T03:06:42.020Z,99.90
2023-04-06T03:09:10.377Z,99.90
2023-04-06T03:11:38.693Z,99.90
2023-04-06T03:14:06.916Z,99.90
2023-04-06T03:16:35.143Z,99.90
2023-04-06T03:19:03.317Z,99.90
2023-04-06T03:21:31.489Z,99.90
2023-04-06T03:24:00.998Z,99.90
2023-04-06T03:26:29.212Z,99.90
2023-04-06T03:28:57.387Z,99.90
2023-04-06T03:31:25.751Z,99.90
2023-04-06T03:33:54.010Z,99.90
2023-04-06T03:36:22.197Z,99.90
2023-04-06T03:38:50.446Z,99.90
2023-04-06T03:41:20.635Z,99.90
2023-04-06T03:43:48.888Z,99.90
2023-04-06T03:46:17.142Z,99.90
2023-04-06T03:48:45.341Z,99.90
2023-04-06T03:51:13.520Z,99.90
2023-04-06T03:53:41.771Z,99.90
2023-04-06T03:56:10.121Z,99.90
2023-04-06T03:58:39.659Z,99.90
2023-04-06T04:01:07.926Z,99.90
2023-04-06T04:03:36.353Z,99.90
2023-04-06T04:06:04.875Z,99.90
2023-04-06T04:08:33.026Z,99.90
2023-04-06T04:11:01.294Z,99.90
2023-04-06T04:13:29.513Z,99.90
2023-04-06T04:15:59.056Z,99.90
2023-04-06T04:18:27.265Z,99.90
2023-04-06T04:20:55.492Z,99.90
2023-04-06T04:23:23.676Z,99.90
2023-04-06T04:25:52.164Z,99.90
2023-04-06T04:28:20.700Z,99.90
2023-04-06T04:30:48.974Z,99.90
2023-04-06T04:33:18.497Z,99.90
2023-04-06T04:35:46.696Z,99.90
2023-04-06T04:38:14.874Z,99.90
2023-04-06T04:40:43.077Z,99.90
2023-04-06T04:43:11.273Z,99.90
2023-04-06T04:45:39.510Z,99.90
2023-04-06T04:48:09.202Z,99.90
2023-04-06T04:50:38.838Z,99.90
2023-04-06T04:53:07.350Z,99.90
2023-04-06T04:55:35.778Z,99.90
2023-04-06T04:58:04.346Z,99.90
2023-04-06T05:00:32.654Z,99.90
2023-04-06T05:03:01.153Z,99.90
2023-04-06T05:05:29.479Z,99.90
2023-04-06T05:07:59.296Z,99.90
2023-04-06T05:10:27.564Z,99.90
2023-04-06T05:12:55.826Z,99.90
2023-04-06T05:15:24.026Z,99.90
2023-04-06T05:17:53.317Z,99.90
2023-04-06T05:20:21.602Z,99.90
2023-04-06T05:22:49.789Z,99.90
2023-04-06T05:25:19.428Z,99.90
2023-04-06T05:27:47.676Z,99.90
2023-04-06T05:30:16.774Z,99.90
2023-04-06T05:32:45.567Z,99.90
2023-04-06T05:35:14.123Z,99.90
2023-04-06T05:37:42.406Z,99.90
2023-04-06T05:40:11.608Z,99.90
2023-04-06T05:42:42.160Z,99.90
2023-04-06T05:45:17.469Z,99.90
2023-04-06T05:47:45.946Z,99.90
2023-04-06T05:50:14.787Z,99.90
2023-04-06T05:52:44.257Z,99.90
2023-04-06T05:55:13.258Z,99.90
2023-04-06T05:57:42.833Z,99.90
2023-04-06T06:00:13.023Z,99.90
2023-04-06T06:02:43.282Z,99.40
2023-04-06T06:05:11.746Z,97.10
2023-04-06T06:07:40.078Z,99.90
2023-04-06T06:10:10.386Z,99.00
2023-04-06T06:12:38.582Z,99.10
2023-04-06T06:15:09.781Z,99.90
2023-04-06T06:17:39.192Z,98.60
2023-04-06T06:20:09.498Z,96.30
2023-04-06T06:22:38.068Z,97.00
2023-04-06T06:25:06.733Z,95.70
2023-04-06T06:27:34.925Z,82.10
2023-04-06T06:30:03.608Z,85.80
2023-04-06T06:32:34.280Z,96.10
2023-04-06T06:35:03.648Z,95.00
2023-04-06T06:37:31.863Z,96.10
2023-04-06T06:40:00.022Z,90.00
2023-04-06T06:42:28.286Z,91.00
2023-04-06T06:44:56.962Z,91.50
2023-04-06T06:47:25.334Z,90.80
2023-04-06T06:49:54.891Z,82.50
2023-04-06T06:52:24.185Z,92.00
2023-04-06T06:54:52.415Z,81.60
2023-04-06T06:57:20.588Z,92.20
2023-04-06T06:59:49.070Z,93.70
2023-04-06T07:02:17.303Z,80.30
2023-04-06T07:04:45.549Z,94.20
2023-04-06T07:07:15.107Z,77.60
2023-04-06T07:09:43.282Z,96.40
2023-04-06T07:12:11.648Z,93.40
2023-04-06T07:14:39.855Z,93.70
2023-04-06T07:17:08.260Z,79.60
2023-04-06T07:19:36.602Z,91.20
2023-04-06T07:22:05.733Z,86.10
2023-04-06T07:24:35.319Z,92.50
2023-04-06T07:27:03.532Z,84.60
2023-04-06T07:29:31.754Z,80.30
2023-04-06T07:32:00.256Z,91.00
2023-04-06T07:34:28.524Z,85.90
2023-04-06T07:36:57.684Z,77.80
2023-04-06T07:39:27.375Z,77.90
2023-04-06T07:41:56.897Z,80.10
2023-04-06T07:44:25.324Z,90.20
2023-04-06T07:46:53.508Z,98.70
2023-04-06T07:49:21.848Z,90.20
2023-04-06T07:51:50.043Z,72.60
2023-04-06T07:54:18.236Z,78.10
2023-04-06T07:56:46.404Z,82.90
2023-04-06T07:59:15.986Z,77.70
2023-04-06T08:01:44.153Z,75.90
2023-04-06T08:04:12.743Z,73.90
2023-04-06T08:06:42.206Z,73.50
2023-04-06T08:09:10.524Z,70.00
2023-04-06T08:11:38.749Z,75.00
2023-04-06T08:14:07.233Z,73.40
2023-04-06T08:16:37.055Z,73.00
2023-04-06T08:19:05.373Z,70.70
2023-04-06T08:21:33.509Z,80.10
2023-04-06T08:24:02.475Z,72.90
2023-04-06T08:26:31.119Z,83.50
2023-04-06T08:28:59.401Z,69.60
2023-04-06T08:31:27.575Z,67.30
2023-04-06T08:33:57.163Z,82.60
2023-04-06T08:36:25.424Z,85.90
2023-04-06T08:38:54.815Z,83.10
2023-04-06T08:41:23.049Z,81.40
2023-04-06T08:43:58.407Z,88.70
2023-04-06T08:46:30.744Z,76.80
2023-04-06T08:49:01.963Z,76.80
2023-04-06T08:51:32.125Z,75.70
2023-04-06T08:54:01.895Z,79.10
2023-04-06T08:56:30.969Z,88.90
2023-04-06T08:58:59.555Z,76.30
2023-04-06T09:01:30.020Z,65.00
2023-04-06T09:04:02.420Z,66.40
2023-04-06T09:06:31.893Z,66.40
2023-04-06T09:09:01.941Z,76.00
2023-04-06T09:11:30.197Z,76.60
2023-04-06T09:13:59.617Z,66.70
2023-04-06T09:16:27.936Z,78.20
2023-04-06T09:18:56.171Z,69.70
2023-04-06T09:21:26.793Z,70.70
2023-04-06T09:24:01.839Z,69.60
2023-04-06T09:26:30.688Z,74.60
2023-04-06T09:29:02.250Z,73.20
2023-04-06T09:31:34.068Z,69.30
2023-04-06T09:34:04.350Z,70.50
2023-04-06T09:36:35.224Z,83.20
2023-04-06T09:39:06.180Z,71.00
2023-04-06T09:41:36.178Z,76.70
2023-04-06T09:44:06.991Z,71.90
2023-04-06T09:46:54.921Z,68.60
2023-04-06T09:49:28.314Z,68.00
2023-04-06T09:52:01.837Z,73.00
2023-04-06T09:54:32.170Z,67.90
2023-04-06T09:57:15.103Z,66.70
2023-04-06T09:59:52.242Z,69.40
2023-04-06T10:02:29.372Z,71.80
2023-04-06T10:05:04.641Z,66.20
2023-04-06T10:07:37.101Z,65.90
2023-04-06T10:10:08.968Z,69.50
2023-04-06T10:12:37.553Z,69.30
2023-04-06T10:15:06.654Z,66.20
2023-04-06T10:17:34.810Z,67.70
2023-04-06T10:20:11.157Z,67.00
2023-04-06T10:22:51.770Z,64.80
2023-04-06T10:25:27.910Z,68.20
2023-04-06T10:28:02.681Z,72.00
2023-04-06T10:30:31.809Z,65.90
2023-04-06T10:33:00.002Z,68.40
2023-04-06T10:35:40.088Z,63.80
2023-04-06T10:38:09.932Z,70.20
2023-04-06T10:40:40.109Z,70.30
2023-04-06T10:43:13.650Z,68.10
2023-04-06T10:45:44.191Z,71.80
2023-04-06T10:48:16.921Z,73.90
2023-04-06T10:50:47.434Z,78.20
2023-04-06T10:53:24.524Z,70.40
2023-04-06T10:55:53.365Z,67.30
2023-04-06T10:58:21.980Z,78.50
2023-04-06T11:00:51.854Z,74.20
2023-04-06T11:03:20.714Z,72.90
2023-04-06T11:05:50.916Z,75.50
2023-04-06T11:08:28.230Z,76.70
2023-04-06T11:11:07.959Z,78.30
2023-04-06T11:13:44.325Z,73.00
2023-04-06T11:16:17.492Z,73.80
2023-04-06T11:18:53.556Z,77.30
2023-04-06T11:21:23.042Z,75.40
2023-04-06T11:23:52.582Z,80.00
2023-04-06T11:26:21.490Z,82.90
2023-04-06T11:28:49.934Z,77.90
2023-04-06T11:31:18.193Z,76.10
2023-04-06T11:33:46.347Z,82.40
2023-04-06T11:36:16.673Z,81.60
2023-04-06T11:38:45.503Z,80.50
2023-04-06T11:41:15.069Z,85.10
2023-04-06T11:43:49.352Z,89.30
2023-04-06T11:46:21.061Z,91.40
2023-04-06T11:48:49.409Z,84.10
2023-04-06T11:51:25.247Z,97.30
2023-04-06T11:53:53.468Z,85.00
2023-04-06T11:56:30.705Z,96.20
2023-04-06T11:59:00.923Z,91.20
2023-04-06T12:01:29.427Z,90.00
2023-04-06T12:03:58.296Z,89.40
2023-04-06T12:06:27.121Z,90.20
2023-04-06T12:08:55.315Z,91.50
2023-04-06T12:11:23.514Z,88.50
2023-04-06T12:13:53.072Z,85.10
2023-04-06T12:16:21.474Z,91.20
2023-04-06T12:18:49.684Z,98.50
2023-04-06T12:21:17.884Z,94.50
2023-04-06T12:23:46.294Z,94.20
2023-04-06T12:26:14.485Z,90.20
2023-04-06T12:28:42.788Z,93.00
2023-04-06T12:31:17.819Z,92.20
2023-04-06T12:33:48.924Z,94.20
2023-04-06T12:36:20.059Z,92.20
2023-04-06T12:38:50.507Z,92.40
2023-04-06T12:41:19.133Z,88.20
2023-04-06T12:43:47.726Z,91.90
2023-04-06T12:46:17.430Z,90.10
2023-04-06T12:48:45.819Z,94.20
2023-04-06T12:51:14.233Z,98.40
2023-04-06T12:53:42.444Z,98.90
2023-04-06T12:56:16.695Z,85.50
2023-04-06T12:58:44.930Z,94.50
2023-04-06T13:01:13.975Z,96.10
2023-04-06T13:03:44.007Z,92.60
2023-04-06T13:06:13.986Z,91.80
2023-04-06T13:08:42.518Z,89.40
2023-04-06T13:11:10.915Z,93.90
2023-04-06T13:13:39.887Z,93.00
2023-04-06T13:16:10.638Z,99.90
2023-04-06T13:18:39.894Z,90.60
2023-04-06T13:21:10.248Z,93.90
2023-04-06T13:23:38.422Z,92.70
2023-04-06T13:26:08.554Z,96.30
2023-04-06T13:28:38.981Z,95.30
2023-04-06T13:31:07.687Z,93.80
2023-04-06T13:33:36.505Z,97.80
2023-04-06T13:36:05.942Z,99.90
2023-04-06T13:38:35.690Z,99.90
2023-04-06T13:41:03.970Z,99.90
2023-04-06T13:43:32.269Z,99.90
2023-04-06T13:46:02.127Z,99.90
2023-04-06T13:48:30.584Z,99.90
2023-04-06T13:50:59.614Z,99.90
2023-04-06T13:53:27.896Z,99.90
2023-04-06T13:55:57.885Z,99.90
2023-04-06T13:58:26.721Z,99.90
2023-04-06T14:00:55.058Z,99.90
2023-04-06T14:03:24.540Z,99.90
2023-04-06T14:05:52.825Z,99.90
2023-04-06T14:08:21.864Z,99.90
2023-04-06T14:10:50.333Z,99.90
2023-04-06T14:13:20.222Z,99.90
2023-04-06T14:15:48.451Z,99.90
2023-04-06T14:18:16.992Z,99.90
2023-04-06T14:20:45.851Z,99.90
2023-04-06T14:23:14.070Z,99.90
2023-04-06T14:25:42.277Z,99.90
2023-04-06T14:28:10.499Z,99.90
2023-04-06T14:30:40.253Z,99.90
2023-04-06T14:33:08.790Z,99.90
2023-04-06T14:35:40.976Z,99.90
2023-04-06T14:38:09.231Z,99.90
2023-04-06T14:40:38.573Z,99.90
2023-04-06T14:43:07.110Z,99.90
2023-04-06T14:45:37.698Z,99.90
2023-04-06T14:48:08.151Z,99.90
2023-04-06T14:50:36.500Z,99.90
2023-04-06T14:53:04.803Z,99.90
2023-04-06T14:55:33.179Z,99.90
2023-04-06T14:58:01.438Z,99.90
2023-04-06T15:00:29.666Z,99.90
2023-04-06T15:02:58.140Z,99.90
2023-04-06T15:05:27.794Z,99.90
2023-04-06T15:07:56.091Z,99.90
2023-04-06T15:10:24.357Z,99.90
2023-04-06T15:12:52.591Z,99.90
2023-04-06T15:15:21.293Z,99.90
2023-04-06T15:17:49.597Z,99.90
2023-04-06T15:20:18.146Z,99.90
2023-04-06T15:22:48.149Z,99.90
2023-04-06T15:25:16.780Z,99.90
2023-04-06T15:27:45.013Z,99.90
2023-04-06T15:30:14.093Z,99.90
2023-04-06T15:32:42.349Z,99.90
2023-04-06T15:35:15.811Z,99.90
2023-04-06T15:37:44.015Z,99.90
2023-04-06T15:40:16.672Z,99.90
2023-04-06T15:42:44.954Z,99.90
2023-04-06T15:45:13.730Z,99.90
2023-04-06T15:47:43.025Z,99.90
2023-04-06T15:50:12.534Z,99.90
2023-04-06T15:52:41.483Z,99.90
2023-04-06T15:55:11.096Z,99.90
2023-04-06T15:57:41.445Z,99.90
2023-04-06T16:00:11.542Z,99.90
2023-04-06T16:02:39.935Z,99.90
2023-04-06T16:05:08.840Z,99.90
2023-04-06T16:07:38.272Z,99.90
2023-04-06T16:10:08.556Z,99.90
2023-04-06T16:12:36.753Z,99.90
2023-04-06T16:15:08.241Z,99.90
2023-04-06T16:17:36.525Z,99.90
2023-04-06T16:20:06.041Z,99.90
2023-04-06T16:22:34.293Z,99.90
2023-04-06T16:25:02.680Z,99.90
2023-04-06T16:27:30.999Z,99.90
2023-04-06T16:29:59.596Z,99.90
2023-04-06T16:32:29.207Z,99.90
2023-04-06T16:34:57.504Z,99.90
2023-04-06T16:37:26.487Z,99.90
2023-04-06T16:39:54.754Z,99.90
2023-04-06T16:42:23.101Z,99.90
2023-04-06T16:44:51.551Z,99.90
2023-04-06T16:47:19.896Z,99.90
2023-04-06T16:49:49.526Z,99.90
2023-04-06T16:52:17.781Z,99.90
2023-04-06T16:54:46.062Z,99.90
2023-04-06T16:57:15.533Z,99.90
2023-04-06T16:59:44.074Z,99.90
2023-04-06T17:02:12.343Z,99.90
2023-04-06T17:04:40.619Z,99.90
2023-04-06T17:07:10.882Z,99.90
2023-04-06T17:09:39.134Z,99.90
2023-04-06T17:12:07.957Z,99.90
2023-04-06T17:14:36.291Z,99.90
2023-04-06T17:17:04.691Z,99.90
2023-04-06T17:19:32.975Z,99.90
2023-04-06T17:22:01.247Z,99.90
2023-04-06T17:24:30.890Z,99.90
2023-04-06T17:26:59.121Z,99.90
2023-04-06T17:29:27.381Z,99.90
2023-04-06T17:31:55.774Z,99.90
2023-04-06T17:34:23.978Z,99.90
2023-04-06T17:36:52.246Z,99.90
2023-04-06T17:39:20.557Z,99.90
2023-04-06T17:41:50.198Z,99.90
2023-04-06T17:44:18.412Z,99.90
2023-04-06T17:46:46.850Z,99.90
